Time;durP1;ratioP1;P1;durP2;ratioP2;P2;SDS_P1;SDS_P2;PMS_P1;PMS_P2;Temp;Humidity;BMP_temperature;BMP_pressure;BME280_temperature;BME280_humidity;BME280_pressure;Samples;Min_cycle;Max_cycle;Signal;HPM_P1;HPM_P2
2021/12/30 00:00:03;;;;;;;48.90;21.20;;;;;;;4.16;86.99;99796.50;104348;1311;22587;-78
2021/12/30 00:02:54;;;;;;;47.60;18.90;;;;;;;4.18;87.14;99792.02;104315;1311;25245;-78
2021/12/30 00:05:24;;;;;;;40.20;17.40;;;;;;;4.20;87.14;99790.46;104410;1309;22571;-78
2021/12/30 00:07:55;;;;;;;45.40;20.00;;;;;;;4.21;87.11;99786.15;104359;1305;23077;-78
2021/12/30 00:10:26;;;;;;;46.00;19.60;;;;;;;4.20;87.06;99789.42;104440;1311;22598;-78
2021/12/30 00:12:57;;;;;;;44.10;19.40;;;;;;;4.19;87.14;99790.48;104284;1309;25385;-78
2021/12/30 00:15:28;;;;;;;53.40;20.10;;;;;;;4.19;87.12;99792.36;104275;1309;23025;-78
2021/12/30 00:17:59;;;;;;;43.90;19.60;;;;;;;4.18;87.08;99792.75;104402;1310;23943;-78
2021/12/30 00:20:30;;;;;;;47.00;21.90;;;;;;;4.15;87.13;99788.88;104338;1309;22768;-78
2021/12/30 00:23:03;;;;;;;53.90;21.20;;;;;;;4.13;87.22;99784.84;104258;1310;22591;-78
2021/12/30 00:25:40;;;;;;;54.30;23.30;;;;;;;4.14;87.35;99780.10;104472;1309;22616;-78
2021/12/30 00:28:13;;;;;;;51.20;20.80;;;;;;;4.15;87.39;99778.77;104404;1307;25437;-78
2021/12/30 00:30:45;;;;;;;54.30;23.80;;;;;;;4.15;87.48;99783.59;104575;1309;22717;-78
2021/12/30 00:33:16;;;;;;;50.30;22.30;;;;;;;4.18;87.53;99786.83;104445;1311;22554;-78
2021/12/30 00:35:49;;;;;;;56.70;24.60;;;;;;;4.15;87.47;99783.83;104473;1315;22573;-79
2021/12/30 00:38:20;;;;;;;55.70;25.00;;;;;;;4.16;87.69;99789.48;104183;1309;25505;-78
2021/12/30 00:40:51;;;;;;;45.70;22.10;;;;;;;4.18;87.73;99796.27;104267;1307;25642;-79
2021/12/30 00:43:21;;;;;;;43.90;20.20;;;;;;;4.16;87.63;99794.94;104258;1309;22561;-78
2021/12/30 00:45:50;;;;;;;;;;;;;;;4.15;87.71;99793.06;104358;1309;22565;-79
2021/12/30 00:48:21;;;;;;;48.90;20.80;;;;;;;4.16;87.78;99792.55;104263;1310;22625;-76
2021/12/30 00:50:53;;;;;;;46.00;20.80;;;;;;;4.18;87.80;99791.30;103963;1315;25404;-76
2021/12/30 00:53:24;;;;;;;48.20;20.90;;;;;;;4.15;87.70;99791.80;103895;1311;25381;-76
2021/12/30 00:55:53;;;;;;;;;;;;;;;4.13;87.76;99784.78;103917;1309;24260;-76
2021/12/30 00:58:24;;;;;;;46.20;20.20;;;;;;;4.10;87.80;99783.34;103879;1310;22590;-76
2021/12/30 01:00:55;;;;;;;48.80;22.10;;;;;;;4.08;87.87;99781.52;103742;1309;163204;-78
2021/12/30 01:03:25;;;;;;;50.50;21.60;;;;;;;4.05;87.85;99782.02;103889;1310;22594;-76
2021/12/30 01:05:56;;;;;;;50.30;22.00;;;;;;;4.03;87.88;99776.95;103902;1315;25117;-76
2021/12/30 01:08:27;;;;;;;50.90;21.20;;;;;;;4.00;87.81;99773.82;103868;1309;26562;-76
2021/12/30 01:11:01;;;;;;;46.50;21.40;;;;;;;3.99;87.90;99776.08;103946;1315;25667;-76
2021/12/30 01:13:32;;;;;;;50.40;21.70;;;;;;;3.98;87.92;99770.35;103895;1314;24289;-76
2021/12/30 01:16:05;;;;;;;49.40;22.00;;;;;;;3.97;87.87;99764.29;103962;1311;25599;-76
2021/12/30 01:18:43;;;;;;;54.20;21.40;;;;;;;3.94;87.83;99760.39;103940;1309;23234;-76
2021/12/30 01:21:15;;;;;;;47.80;19.10;;;;;;;3.91;87.94;99758.52;103943;1314;22687;-76
2021/12/30 01:23:46;;;;;;;39.60;15.50;;;;;;;3.90;87.89;99766.45;103989;1316;23154;-77
2021/12/30 01:26:16;;;;;;;38.30;15.60;;;;;;;3.87;87.88;99778.92;103984;1309;25544;-76
2021/12/30 01:28:45;;;;;;;;;;;;;;;3.88;87.93;99779.51;103934;1310;22548;-77
2021/12/30 01:31:17;;;;;;;34.00;14.80;;;;;;;3.88;88.08;99785.52;103926;1312;25246;-76
2021/12/30 01:33:49;;;;;;;36.40;15.30;;;;;;;3.91;88.15;99793.86;103934;1309;26653;-76
2021/12/30 01:36:21;;;;;;;37.50;16.20;;;;;;;3.94;88.03;99785.77;103855;1313;22731;-75
2021/12/30 01:38:52;;;;;;;40.90;18.20;;;;;;;3.95;87.97;99792.12;103920;1310;24247;-76
2021/12/30 01:41:24;;;;;;;36.10;16.00;;;;;;;3.96;87.94;99787.62;103890;1312;22588;-76
2021/12/30 01:43:55;;;;;;;38.10;16.20;;;;;;;3.96;87.91;99793.05;103889;1309;22605;-76
2021/12/30 01:46:36;;;;;;;38.40;16.30;;;;;;;3.99;88.01;99797.23;104075;1311;22590;-76
2021/12/30 01:49:07;;;;;;;38.90;15.70;;;;;;;4.01;87.94;99802.75;103858;1309;24182;-76
2021/12/30 01:51:39;;;;;;;37.70;14.30;;;;;;;4.03;87.86;99804.98;103917;1307;22673;-77
2021/12/30 01:54:11;;;;;;;36.10;14.70;;;;;;;4.05;87.93;99809.42;103831;1309;22626;-75
2021/12/30 01:56:42;;;;;;;35.00;16.30;;;;;;;4.07;87.88;99808.71;104076;1314;26298;-76
2021/12/30 01:59:13;;;;;;;39.00;16.70;;;;;;;4.10;87.82;99802.53;103828;1314;22583;-76
2021/12/30 02:01:42;;;;;;;;;;;;;;;4.13;87.82;99807.83;103938;1309;24419;-76
2021/12/30 02:04:13;;;;;;;34.30;13.60;;;;;;;4.13;87.72;99815.16;103868;1309;26000;-76
2021/12/30 02:06:44;;;;;;;30.20;13.00;;;;;;;4.10;87.69;99813.88;103830;1313;22586;-76
2021/12/30 02:09:17;;;;;;;30.90;13.20;;;;;;;4.07;87.70;99818.82;103884;1309;24700;-76
2021/12/30 02:11:49;;;;;;;33.20;11.90;;;;;;;4.07;87.81;99818.75;103962;1310;22584;-76
2021/12/30 02:14:20;;;;;;;31.10;12.70;;;;;;;4.07;87.82;99818.19;103960;1307;25486;-76
2021/12/30 02:16:49;;;;;;;;;;;;;;;4.06;87.92;99814.83;103921;1309;23150;-76
2021/12/30 02:19:19;;;;;;;26.90;10.80;;;;;;;4.03;87.98;99815.25;103890;1310;23110;-76
2021/12/30 02:21:50;;;;;;;36.10;13.20;;;;;;;4.02;88.05;99817.88;103857;1306;24974;-76
2021/12/30 02:24:19;;;;;;;;;;;;;;;4.01;88.12;99822.27;103852;1306;24088;-76
2021/12/30 02:26:51;;;;;;;29.40;10.30;;;;;;;4.04;88.26;99827.66;103851;1314;22681;-76
2021/12/30 02:29:22;;;;;;;28.80;11.90;;;;;;;4.06;88.19;99826.58;103768;1307;22590;-80
2021/12/30 02:31:52;;;;;;;30.60;12.00;;;;;;;4.09;88.17;99828.14;103915;1309;22589;-76
2021/12/30 02:34:23;;;;;;;24.20;10.30;;;;;;;4.11;88.24;99830.84;103830;1313;23644;-76
2021/12/30 02:36:52;;;;;;;;;;;;;;;4.14;88.22;99834.05;103843;1309;22551;-76
2021/12/30 02:39:23;;;;;;;27.30;10.10;;;;;;;4.17;88.24;99833.41;103912;1309;23281;-76
2021/12/30 02:41:54;;;;;;;29.30;11.00;;;;;;;4.20;88.23;99834.34;104027;1311;22646;-76
2021/12/30 02:44:24;;;;;;;;;;;;;;;4.24;88.15;99839.17;103926;1309;22854;-76
2021/12/30 02:46:55;;;;;;;31.40;13.40;;;;;;;4.28;88.08;99841.27;103887;1309;23313;-76
2021/12/30 02:49:26;;;;;;;31.50;13.90;;;;;;;4.30;88.07;99842.44;103808;1309;22714;-75
2021/12/30 02:51:57;;;;;;;30.20;13.10;;;;;;;4.31;87.82;99832.71;103875;1309;22584;-75
2021/12/30 02:54:28;;;;;;;35.20;15.10;;;;;;;4.29;87.72;99833.48;103947;1309;25608;-76
2021/12/30 02:56:57;;;;;;;;;;;;;;;4.30;87.71;99837.80;103906;1310;22625;-76
2021/12/30 02:59:30;;;;;;;30.40;12.10;;;;;;;4.29;87.73;99843.04;103851;1311;22587;-76
2021/12/30 03:01:59;;;;;;;;;;;;;;;4.26;87.67;99842.34;103900;1307;25886;-76
2021/12/30 03:04:30;;;;;;;31.20;13.40;;;;;;;4.24;87.67;99831.52;103849;1313;22803;-76
2021/12/30 03:07:00;;;;;;;31.80;15.50;;;;;;;4.22;87.61;99824.07;103889;1310;25245;-76
2021/12/30 03:09:30;;;;;;;;;;;;;;;4.19;87.68;99827.34;103925;1314;22602;-76
2021/12/30 03:12:00;;;;;;;31.90;14.10;;;;;;;4.15;87.74;99828.59;103910;1310;22742;-75
2021/12/30 03:14:29;;;;;;;;;;;;;;;4.09;87.86;99830.42;103960;1309;22622;-75
2021/12/30 03:17:00;;;;;;;31.00;12.80;;;;;;;4.06;87.84;99827.05;103871;1314;25532;-76
2021/12/30 03:19:29;;;;;;;;;;;;;;;4.05;87.91;99831.37;103933;1309;25369;-76
2021/12/30 03:21:59;;;;;;;36.70;15.40;;;;;;;4.04;87.96;99834.91;103906;1308;25249;-76
2021/12/30 03:24:28;;;;;;;;;;;;;;;4.06;88.06;99833.05;103830;1309;24244;-77
2021/12/30 03:27:00;;;;;;;34.80;15.30;;;;;;;4.05;87.82;99833.78;103848;1315;22584;-76
2021/12/30 03:29:30;;;;;;;30.50;12.70;;;;;;;4.05;87.85;99833.15;103910;1313;22755;-76
2021/12/30 03:32:01;;;;;;;33.20;13.50;;;;;;;4.05;87.75;99836.01;103908;1309;24272;-76
2021/12/30 03:34:30;;;;;;;;;;;;;;;4.05;87.76;99842.48;103878;1309;22780;-76
2021/12/30 03:37:01;;;;;;;31.80;14.90;;;;;;;4.06;87.82;99846.93;103864;1309;23028;-76
2021/12/30 03:39:32;;;;;;;28.90;13.10;;;;;;;4.07;87.82;99850.70;103836;1310;22790;-76
2021/12/30 03:42:04;;;;;;;33.30;14.20;;;;;;;4.09;87.81;99849.55;103912;1309;25633;-76
2021/12/30 03:44:35;;;;;;;27.60;11.70;;;;;;;4.11;87.75;99852.01;103879;1313;25624;-76
2021/12/30 03:47:12;;;;;;;27.80;12.80;;;;;;;4.11;87.74;99860.38;103978;1309;24208;-76
2021/12/30 03:49:44;;;;;;;27.80;11.90;;;;;;;4.12;87.80;99862.46;103938;1306;22560;-76
2021/12/30 03:52:23;;;;;;;26.10;10.50;;;;;;;4.14;87.69;99862.02;103910;1309;24246;-76
2021/12/30 03:54:53;;;;;;;26.30;11.10;;;;;;;4.15;87.71;99854.30;103872;1311;26045;-76
2021/12/30 03:57:25;;;;;;;30.00;12.30;;;;;;;4.17;87.64;99850.85;103922;1309;22568;-77
2021/12/30 03:59:56;;;;;;;30.00;12.60;;;;;;;4.19;87.65;99851.90;103874;1309;25499;-76
2021/12/30 04:02:27;;;;;;;27.70;11.50;;;;;;;4.19;87.57;99867.23;103903;1308;22911;-77
2021/12/30 04:04:56;;;;;;;;;;;;;;;4.20;87.48;99867.17;103900;1309;22561;-76
2021/12/30 04:07:27;;;;;;;28.50;11.50;;;;;;;4.20;87.37;99871.50;103832;1313;22724;-76
2021/12/30 04:09:56;;;;;;;;;;;;;;;4.21;87.38;99879.61;103930;1309;23075;-77
2021/12/30 04:12:27;;;;;;;29.70;12.50;;;;;;;4.20;87.31;99882.30;103880;1309;22813;-77
2021/12/30 04:14:59;;;;;;;29.40;11.80;;;;;;;4.20;87.29;99883.36;103937;1314;22641;-76
2021/12/30 04:17:29;;;;;;;29.50;12.70;;;;;;;4.19;87.15;99869.96;103828;1309;22682;-76
2021/12/30 04:20:00;;;;;;;28.90;12.30;;;;;;;4.17;87.09;99875.96;103846;1313;22614;-76
2021/12/30 04:22:30;;;;;;;26.80;10.60;;;;;;;4.15;87.21;99875.23;103903;1309;22644;-76
2021/12/30 04:24:59;;;;;;;;;;;;;;;4.14;87.23;99878.02;103889;1310;22887;-76
2021/12/30 04:27:30;;;;;;;29.10;11.10;;;;;;;4.11;87.31;99888.94;103907;1309;22703;-76
2021/12/30 04:29:59;;;;;;;;;;;;;;;4.10;87.37;99892.02;103885;1311;22530;-76
2021/12/30 04:32:29;;;;;;;26.20;10.50;;;;;;;4.09;87.31;99889.79;103883;1310;22555;-77
2021/12/30 04:34:58;;;;;;;;;;;;;;;4.08;87.32;99892.56;103979;1309;24905;-76
2021/12/30 04:37:29;;;;;;;24.60;9.50;;;;;;;4.08;87.39;99894.95;103947;1313;25391;-76
2021/12/30 04:40:01;;;;;;;27.10;11.10;;;;;;;4.08;87.35;99884.30;103845;1309;23152;-75
2021/12/30 04:42:32;;;;;;;31.20;16.50;;;;;;;4.08;87.39;99882.48;104039;1309;26023;-75
2021/12/30 04:45:03;;;;;;;32.10;15.90;;;;;;;4.06;87.38;99881.50;103862;1310;25303;-75
2021/12/30 04:47:34;;;;;;;26.70;14.30;;;;;;;4.08;87.38;99871.28;103879;1314;22555;-75
2021/12/30 04:50:05;;;;;;;27.60;12.00;;;;;;;4.06;87.33;99868.08;103871;1309;22793;-76
2021/12/30 04:52:36;;;;;;;26.10;12.90;;;;;;;4.04;87.41;99873.77;103960;1313;22769;-76
2021/12/30 04:55:09;;;;;;;21.40;9.50;;;;;;;4.05;87.45;99876.90;103859;1310;23466;-77
2021/12/30 04:57:40;;;;;;;23.10;9.70;;;;;;;4.04;87.54;99880.15;103895;1309;22628;-76
2021/12/30 05:00:11;;;;;;;;;;;;;;;4.04;87.55;99875.09;103871;1309;22548;-76
2021/12/30 05:03:07;;;;;;;21.60;8.40;;;;;;;4.05;87.66;99877.73;103923;1316;25529;-76
2021/12/30 05:05:40;;;;;;;26.40;9.20;;;;;;;4.05;87.80;99882.58;103854;1314;24404;-76
2021/12/30 05:08:12;;;;;;;26.70;10.60;;;;;;;4.05;87.77;99885.04;103916;1309;22588;-76
2021/12/30 05:10:43;;;;;;;32.50;14.20;;;;;;;4.06;87.87;99899.11;103836;1313;24227;-77
2021/12/30 05:13:15;;;;;;;70.40;28.50;;;;;;;4.07;87.90;99908.40;103839;1309;24274;-76
2021/12/30 05:15:47;;;;;;;65.00;25.60;;;;;;;4.07;87.90;99911.15;103949;1309;22609;-76
2021/12/30 05:18:19;;;;;;;53.20;22.60;;;;;;;4.08;87.93;99916.96;103942;1309;24162;-77
2021/12/30 05:20:49;;;;;;;54.50;24.10;;;;;;;4.09;87.83;99909.61;103851;1315;22617;-76
2021/12/30 05:23:21;;;;;;;56.90;23.50;;;;;;;4.09;87.88;99911.39;103860;1310;25561;-76
2021/12/30 05:25:51;;;;;;;57.40;21.50;;;;;;;4.13;87.94;99918.55;103947;1309;22703;-77
2021/12/30 05:28:22;;;;;;;42.90;17.10;;;;;;;4.15;87.84;99916.75;103799;1314;22767;-76
2021/12/30 05:30:53;;;;;;;32.80;14.00;;;;;;;4.16;87.85;99922.70;103810;1309;24238;-76
2021/12/30 05:33:24;;;;;;;27.60;11.10;;;;;;;4.16;87.91;99920.83;104024;1309;24244;-80
2021/12/30 05:35:53;;;;;;;;;;;;;;;4.14;88.00;99930.65;104952;1313;24302;-80
2021/12/30 05:38:23;;;;;;;29.60;11.40;;;;;;;4.15;88.10;99928.42;105142;1309;22601;-80
2021/12/30 05:40:54;;;;;;;26.00;10.20;;;;;;;4.18;88.24;99938.06;105087;1309;24186;-80
2021/12/30 05:43:25;;;;;;;27.20;10.10;;;;;;;4.20;88.16;99928.42;105001;1314;22574;-81
2021/12/30 05:45:55;;;;;;;26.30;11.00;;;;;;;4.23;88.05;99922.35;105075;1313;22723;-79
2021/12/30 05:48:24;;;;;;;;;;;;;;;4.24;88.07;99924.36;104848;1309;22517;-79
2021/12/30 05:50:59;;;;;;;27.00;11.40;;;;;;;4.25;88.11;99923.91;104829;1310;22511;-79
2021/12/30 05:53:31;;;;;;;27.60;11.60;;;;;;;4.26;88.17;99926.75;104806;1313;24301;-77
2021/12/30 05:56:01;;;;;;;27.30;10.60;;;;;;;4.28;88.27;99922.47;104231;1309;22657;-77
2021/12/30 05:58:32;;;;;;;26.40;9.80;;;;;;;4.31;88.15;99923.58;104342;1309;22691;-77
2021/12/30 06:01:01;;;;;;;;;;;;;;;4.34;88.12;99921.52;104403;1309;25248;-78
2021/12/30 06:03:32;;;;;;;30.70;11.70;;;;;;;4.34;88.11;99922.98;104022;1313;25301;-78
2021/12/30 06:06:03;;;;;;;30.00;11.80;;;;;;;4.35;88.02;99925.81;104497;1315;22831;-77
2021/12/30 06:08:34;;;;;;;23.40;9.50;;;;;;;4.34;88.08;99925.52;104566;1309;22652;-79
2021/12/30 06:11:05;;;;;;;28.00;11.10;;;;;;;4.33;88.14;99927.59;104910;1309;22646;-79
2021/12/30 06:13:36;;;;;;;28.40;11.70;;;;;;;4.33;88.10;99927.05;104865;1313;22654;-79
2021/12/30 06:16:07;;;;;;;26.10;10.30;;;;;;;4.35;88.30;99927.23;104442;1309;25258;-78
2021/12/30 06:18:38;;;;;;;27.20;11.00;;;;;;;4.37;88.32;99928.11;104651;1306;25368;-79
2021/12/30 06:21:09;;;;;;;27.20;10.10;;;;;;;4.39;88.27;99929.92;105070;1309;22673;-79
2021/12/30 06:23:39;;;;;;;24.50;10.50;;;;;;;4.41;88.36;99937.05;104715;1309;24230;-79
2021/12/30 06:26:10;;;;;;;31.20;13.40;;;;;;;4.41;88.31;99940.35;104735;1309;22491;-79
2021/12/30 06:28:42;;;;;;;33.30;12.40;;;;;;;4.42;88.29;99946.58;104786;1309;24225;-79
2021/12/30 06:31:12;;;;;;;29.70;11.00;;;;;;;4.43;88.35;99947.25;105054;1309;22607;-78
2021/12/30 06:33:41;;;;;;;;;;;;;;;4.41;88.37;99953.64;104748;1307;24209;-78
2021/12/30 06:36:12;;;;;;;28.30;10.70;;;;;;;4.40;88.50;99959.04;104344;1309;22631;-78
2021/12/30 06:38:43;;;;;;;27.60;10.20;;;;;;;4.38;88.57;99965.59;104610;1313;25239;-79
2021/12/30 06:41:12;;;;;;;;;;;;;;;4.36;88.59;99975.27;104273;1306;24235;-78
2021/12/30 06:43:42;;;;;;;28.80;10.50;;;;;;;4.34;88.75;99980.17;104073;1306;25895;-78
2021/12/30 06:46:14;;;;;;;24.60;9.60;;;;;;;4.35;88.83;99980.29;104191;1308;23274;-78
2021/12/30 06:48:45;;;;;;;25.40;9.30;;;;;;;4.36;88.88;99978.35;104017;1307;22619;-78
2021/12/30 06:51:18;;;;;;;29.40;11.80;;;;;;;4.36;88.87;99975.77;104009;1314;24231;-78
2021/12/30 06:53:49;;;;;;;23.50;10.20;;;;;;;4.34;89.01;99983.38;106723;1313;22689;-79
2021/12/30 06:56:21;;;;;;;28.90;11.00;;;;;;;4.34;89.09;99984.04;104504;1309;25309;-78
2021/12/30 06:58:52;;;;;;;31.50;11.00;;;;;;;4.33;89.12;99985.87;104472;1306;25395;-78
2021/12/30 07:01:23;;;;;;;29.10;11.10;;;;;;;4.33;89.20;99983.81;104783;1311;22571;-79
2021/12/30 07:03:53;;;;;;;26.90;12.10;;;;;;;4.33;89.29;99988.80;105360;1314;23435;-79
2021/12/30 07:06:22;;;;;;;;;;;;;;;4.36;89.32;99987.90;104759;1311;22564;-79
2021/12/30 07:08:53;;;;;;;34.60;13.70;;;;;;;4.38;89.41;99995.29;105083;1312;22564;-81
2021/12/30 07:11:23;;;;;;;31.40;12.80;;;;;;;4.38;89.36;99997.88;105046;1309;22650;-81
2021/12/30 07:13:54;;;;;;;32.30;12.90;;;;;;;4.39;89.42;100000.67;104795;1310;22682;-81
2021/12/30 07:16:25;;;;;;;30.40;12.30;;;;;;;4.41;89.46;99999.74;104701;1309;22636;-81
2021/12/30 07:18:56;;;;;;;28.70;12.70;;;;;;;4.44;89.43;99990.11;104739;1309;24889;-81
2021/12/30 07:21:27;;;;;;;32.30;14.10;;;;;;;4.45;89.56;99992.77;104762;1313;22600;-81
2021/12/30 07:23:56;;;;;;;;;;;;;;;4.45;89.65;99998.36;104707;1310;25271;-81
2021/12/30 07:26:28;;;;;;;33.00;14.00;;;;;;;4.45;89.70;99996.94;104780;1313;22590;-81
2021/12/30 07:29:00;;;;;;;30.60;12.80;;;;;;;4.44;89.76;99997.70;104820;1309;22584;-81
2021/12/30 07:31:32;;;;;;;30.90;13.50;;;;;;;4.46;89.83;100001.98;104796;1309;25232;-81
2021/12/30 07:34:03;;;;;;;28.80;12.60;;;;;;;4.47;89.97;100002.98;104668;1313;22574;-81
2021/12/30 07:36:34;;;;;;;32.50;14.50;;;;;;;4.49;89.99;100002.17;104817;1309;22614;-82
2021/12/30 07:39:06;;;;;;;32.40;14.50;;;;;;;4.51;90.15;100007.25;104773;1309;22571;-81
2021/12/30 07:41:37;;;;;;;33.90;14.40;;;;;;;4.51;90.24;100004.90;104935;1313;22600;-83
2021/12/30 07:44:09;;;;;;;27.30;13.30;;;;;;;4.52;90.39;100006.35;104887;1315;22587;-81
2021/12/30 07:46:40;;;;;;;29.00;12.40;;;;;;;4.53;90.39;100009.81;104943;1310;23987;-82
2021/12/30 07:49:11;;;;;;;28.90;13.40;;;;;;;4.53;90.55;100015.00;104902;1309;22881;-81
2021/12/30 07:51:42;;;;;;;30.70;14.10;;;;;;;4.55;90.55;100017.31;104934;1314;23143;-81
2021/12/30 07:54:12;;;;;;;28.60;12.20;;;;;;;4.58;90.68;100016.36;105054;1310;22621;-81
2021/12/30 07:56:45;;;;;;;28.60;12.00;;;;;;;4.59;90.80;100015.98;105066;1311;25418;-81
2021/12/30 07:59:16;;;;;;;30.10;14.00;;;;;;;4.61;90.89;100022.19;105108;1314;22569;-80
2021/12/30 08:01:47;;;;;;;29.30;13.60;;;;;;;4.62;90.94;100020.48;105110;1313;22581;-81
2021/12/30 08:04:18;;;;;;;27.40;13.00;;;;;;;4.65;91.04;100026.01;105138;1309;22811;-78
2021/12/30 08:06:49;;;;;;;29.30;12.90;;;;;;;4.68;91.04;100027.46;104635;1314;22571;-78
2021/12/30 08:09:20;;;;;;;32.30;14.30;;;;;;;4.71;91.08;100026.45;104514;1312;25408;-78
2021/12/30 08:11:51;;;;;;;31.60;14.40;;;;;;;4.72;91.05;100027.65;104304;1314;22539;-77
2021/12/30 08:14:22;;;;;;;27.00;12.90;;;;;;;4.74;91.16;100029.24;104393;1316;25448;-78
2021/12/30 08:16:53;;;;;;;27.20;12.20;;;;;;;4.75;91.19;100024.16;104339;1314;24263;-77
2021/12/30 08:19:25;;;;;;;28.70;12.50;;;;;;;4.79;91.23;100031.08;104370;1309;22548;-78
2021/12/30 08:21:56;;;;;;;30.80;12.80;;;;;;;4.81;91.20;100035.13;104310;1309;22575;-77
2021/12/30 08:24:29;;;;;;;27.20;13.00;;;;;;;4.82;91.24;100031.42;104185;1313;25271;-78
2021/12/30 08:27:00;;;;;;;28.90;12.10;;;;;;;4.84;91.29;100037.92;104278;1311;22593;-79
2021/12/30 08:29:33;;;;;;;31.70;13.50;;;;;;;4.84;91.34;100045.98;104461;1311;22580;-78
2021/12/30 08:32:06;;;;;;;27.40;12.70;;;;;;;4.87;91.44;100044.23;104713;1309;24692;-78
2021/12/30 08:34:37;;;;;;;28.90;13.60;;;;;;;4.87;91.52;100046.20;104690;1313;22713;-79
2021/12/30 08:37:09;;;;;;;29.00;13.20;;;;;;;4.89;91.44;100045.36;105112;1310;22545;-78
2021/12/30 08:39:40;;;;;;;28.50;12.10;;;;;;;4.91;91.48;100046.73;105141;1312;27519;-78
2021/12/30 08:42:21;;;;;;;28.80;13.50;;;;;;;4.92;91.53;100049.99;105404;1315;22562;-78
2021/12/30 08:44:52;;;;;;;;;;;;;;;4.95;91.60;100054.42;105228;1316;25021;-78
2021/12/30 08:47:58;;;;;;;30.00;12.10;;;;;;;5.00;91.61;100054.08;99624;1345;545196;-64
2021/12/30 08:50:29;;;;;;;30.40;12.90;;;;;;;5.00;91.78;100053.37;101545;1320;25386;-61
2021/12/30 08:53:00;;;;;;;29.10;12.40;;;;;;;5.03;91.86;100051.16;101627;1318;25378;-61
2021/12/30 08:55:32;;;;;;;29.40;12.00;;;;;;;5.06;91.96;100052.14;102404;1310;22615;-60
2021/12/30 08:58:04;;;;;;;27.00;10.70;;;;;;;5.10;92.05;100051.08;102299;1305;22576;-62
2021/12/30 09:00:41;;;;;;;24.90;11.50;;;;;;;5.11;92.10;100047.46;102201;1313;149037;-62
2021/12/30 09:03:13;;;;;;;26.10;11.10;;;;;;;5.15;92.22;100047.27;102423;1312;22602;-62
2021/12/30 09:05:45;;;;;;;26.20;10.40;;;;;;;5.16;92.20;100053.55;102309;1307;22593;-62
2021/12/30 09:08:17;;;;;;;21.30;9.00;;;;;;;5.19;92.38;100060.81;102535;1313;24041;-62
2021/12/30 09:10:49;;;;;;;23.40;9.20;;;;;;;5.21;92.35;100056.54;102452;1311;25390;-63
2021/12/30 09:13:21;;;;;;;23.40;9.90;;;;;;;5.24;92.43;100054.00;102498;1307;25332;-62
2021/12/30 09:15:52;;;;;;;21.20;9.50;;;;;;;5.27;92.60;100055.78;102451;1311;24857;-62
2021/12/30 09:18:25;;;;;;;25.50;10.80;;;;;;;5.30;92.56;100052.89;102471;1313;25939;-63
2021/12/30 09:20:56;;;;;;;25.00;10.90;;;;;;;5.35;92.74;100058.99;102420;1313;22717;-63
2021/12/30 09:23:28;;;;;;;25.10;10.10;;;;;;;5.37;92.64;100064.77;102604;1312;24224;-62
2021/12/30 09:25:59;;;;;;;28.00;10.00;;;;;;;5.39;92.69;100072.05;102460;1313;24336;-62
2021/12/30 09:28:29;;;;;;;26.30;10.80;;;;;;;5.40;92.59;100071.46;102555;1310;22567;-63
2021/12/30 09:31:00;;;;;;;23.70;11.00;;;;;;;5.41;92.62;100066.61;102420;1313;22592;-62
2021/12/30 09:33:33;;;;;;;23.30;9.70;;;;;;;5.43;92.57;100065.43;102453;1312;22974;-62
2021/12/30 09:36:05;;;;;;;23.00;10.10;;;;;;;5.43;92.55;100061.62;102541;1313;22586;-62
2021/12/30 09:38:36;;;;;;;24.00;9.00;;;;;;;5.45;92.58;100066.06;102696;1312;22581;-62
2021/12/30 09:41:08;;;;;;;25.90;9.50;;;;;;;5.47;92.61;100069.40;102671;1310;25379;-62
2021/12/30 09:43:42;;;;;;;24.60;10.20;;;;;;;5.49;92.60;100066.08;102696;1312;24771;-63
2021/12/30 09:46:18;;;;;;;28.00;11.30;;;;;;;5.52;92.62;100068.45;102613;1313;22591;-63
2021/12/30 09:48:49;;;;;;;27.10;11.70;;;;;;;5.54;92.63;100066.95;102469;1311;22580;-62
2021/12/30 09:51:21;;;;;;;29.70;11.90;;;;;;;5.57;92.68;100069.52;102370;1312;22616;-63
2021/12/30 09:53:53;;;;;;;27.20;12.20;;;;;;;5.58;92.75;100075.44;102433;1311;24006;-62
2021/12/30 09:56:24;;;;;;;30.30;12.40;;;;;;;5.59;92.75;100068.17;102371;1313;22643;-62
2021/12/30 09:58:56;;;;;;;25.90;11.50;;;;;;;5.62;92.81;100065.79;102352;1312;22610;-62
2021/12/30 10:01:27;;;;;;;31.00;11.60;;;;;;;5.65;92.95;100064.41;102339;1313;22574;-63
2021/12/30 10:04:01;;;;;;;26.30;10.90;;;;;;;5.68;92.98;100060.20;102404;1313;22647;-62
2021/12/30 10:06:33;;;;;;;32.70;11.60;;;;;;;5.74;93.03;100060.92;102460;1312;24179;-62
2021/12/30 10:09:11;;;;;;;28.50;11.80;;;;;;;5.78;93.02;100061.09;102477;1312;22567;-62
2021/12/30 10:11:56;;;;;;;30.50;12.40;;;;;;;5.82;93.07;100057.00;102385;1312;26392;-62
2021/12/30 10:14:32;;;;;;;32.50;11.90;;;;;;;5.86;93.06;100053.80;102387;1313;22576;-63
2021/12/30 10:17:23;;;;;;;25.80;11.10;;;;;;;5.91;93.10;100050.67;102472;1313;22652;-62
2021/12/30 10:19:56;;;;;;;28.80;12.70;;;;;;;5.97;93.18;100053.92;102449;1313;22583;-62
2021/12/30 10:22:28;;;;;;;31.40;13.00;;;;;;;6.04;93.19;100058.28;102583;1313;22590;-62
2021/12/30 10:24:59;;;;;;;29.90;12.20;;;;;;;6.08;93.21;100063.20;102546;1311;24234;-62
2021/12/30 10:27:33;;;;;;;30.50;13.90;;;;;;;6.12;93.23;100060.34;102379;1313;25529;-62
2021/12/30 10:30:07;;;;;;;27.20;12.20;;;;;;;6.16;93.39;100057.33;102532;1313;24311;-63
2021/12/30 10:32:38;;;;;;;34.80;15.00;;;;;;;6.19;93.43;100063.71;102438;1313;22581;-62
2021/12/30 10:35:11;;;;;;;32.40;15.10;;;;;;;6.24;93.53;100068.84;102368;1313;22575;-62
2021/12/30 10:37:47;;;;;;;31.20;15.30;;;;;;;6.28;93.55;100071.85;102433;1313;22633;-62
2021/12/30 10:40:29;;;;;;;32.60;15.10;;;;;;;6.32;93.65;100076.77;102459;1312;25247;-62
2021/12/30 10:43:18;;;;;;;32.40;14.60;;;;;;;6.36;93.69;100082.48;102691;1310;25278;-63
2021/12/30 10:48:59;;;;;;;35.20;15.00;;;;;;;6.47;93.77;100089.27;99675;1347;545229;-64
2021/12/30 10:51:36;;;;;;;38.80;16.90;;;;;;;6.50;94.09;100088.27;101657;1318;24333;-63
2021/12/30 10:54:18;;;;;;;38.00;14.60;;;;;;;6.55;94.02;100091.70;101668;1319;22591;-62
2021/12/30 10:56:54;;;;;;;33.00;15.30;;;;;;;6.60;93.96;100098.42;101453;1321;25318;-63
2021/12/30 10:59:28;;;;;;;34.00;13.80;;;;;;;6.65;94.01;100095.46;101433;1322;22642;-62
2021/12/30 11:02:04;;;;;;;33.10;13.40;;;;;;;6.70;94.16;100096.48;101584;1321;156669;-62
2021/12/30 11:04:38;;;;;;;39.10;14.40;;;;;;;6.73;94.00;100089.10;101848;1313;25273;-63
2021/12/30 11:07:11;;;;;;;32.40;13.30;;;;;;;6.77;93.99;100090.95;101920;1321;22852;-62
2021/12/30 11:09:51;;;;;;;33.70;13.00;;;;;;;6.81;94.09;100079.84;102000;1319;25555;-63
2021/12/30 11:12:28;;;;;;;30.80;12.60;;;;;;;6.85;93.94;100085.14;101977;1319;22650;-62
2021/12/30 11:15:05;;;;;;;35.40;14.40;;;;;;;6.87;93.98;100083.46;102097;1319;22541;-65
2021/12/30 11:17:38;;;;;;;37.00;15.80;;;;;;;6.92;93.94;100078.05;101950;1316;24220;-63
2021/12/30 11:20:11;;;;;;;34.50;15.30;;;;;;;6.97;94.05;100080.31;101851;1319;22577;-63
2021/12/30 11:22:44;;;;;;;33.80;14.10;;;;;;;7.00;93.96;100071.75;101798;1319;25330;-63
2021/12/30 11:25:19;;;;;;;33.10;15.10;;;;;;;7.01;93.91;100076.78;101902;1319;22596;-63
2021/12/30 11:27:49;;;;;;;34.00;13.70;;;;;;;7.01;93.81;100083.20;101758;1316;22622;-62
2021/12/30 11:30:21;;;;;;;40.90;14.30;;;;;;;7.04;93.81;100083.50;101768;1319;22603;-64
2021/12/30 11:32:52;;;;;;;37.00;14.50;;;;;;;7.06;93.95;100088.08;101849;1319;22583;-63
2021/12/30 11:35:26;;;;;;;39.10;15.90;;;;;;;7.08;93.90;100088.30;101783;1320;25311;-62
2021/12/30 11:37:57;;;;;;;34.60;14.30;;;;;;;7.10;94.03;100078.64;101866;1320;22638;-63
2021/12/30 11:40:29;;;;;;;34.10;14.20;;;;;;;7.13;94.07;100075.05;101795;1319;25239;-62
2021/12/30 11:43:11;;;;;;;36.70;16.10;;;;;;;7.17;94.10;100071.05;101888;1319;23941;-62
2021/12/30 11:45:44;;;;;;;37.50;14.80;;;;;;;7.22;94.33;100073.37;101949;1319;22562;-63